Time;durP1;ratioP1;P1;durP2;ratioP2;P2;SDS_P1;SDS_P2;PMS_P1;PMS_P2;Temp;Humidity;BMP_temperature;BMP_pressure;BME280_temperature;BME280_humidity;BME280_pressure;Samples;Min_cycle;Max_cycle;Signal;HPM_P1;HPM_P2
2021/04/04 00:01:41;;;;;;;;;;;;;;;19.76;64.02;100727.44;5112504;27;1315;-71
2021/04/04 00:04:08;;;;;;;;;;;;;;;19.75;64.36;100734.50;5112952;27;1145;-71
2021/04/04 00:06:34;;;;;;;;;;;;;;;19.75;64.16;100734.50;5130508;27;1302;-71
2021/04/04 00:09:01;;;;;;;;;;;;;;;19.75;64.19;100739.78;5130890;27;910;-71
2021/04/04 00:11:27;;;;;;;;;;;;;;;19.74;64.17;100738.09;5130810;27;1299;-71
2021/04/04 00:13:53;;;;;;;;;;;;;;;19.74;64.11;100732.78;5111501;27;2004;-72
2021/04/04 00:16:20;;;;;;;;;;;;;;;19.74;64.26;100735.44;5130590;27;1314;-69
2021/04/04 00:18:46;;;;;;;;;;;;;;;19.74;64.25;100732.78;5130825;27;1365;-70
2021/04/04 00:21:12;;;;;;;;;;;;;;;19.73;64.32;100736.38;5112315;27;1379;-70
2021/04/04 00:23:38;;;;;;;;;;;;;;;19.74;64.41;100739.88;5130561;27;1002;-70
2021/04/04 00:26:04;;;;;;;;;;;;;;;19.73;64.24;100731.09;5094801;27;1290;-70
2021/04/04 00:28:31;;;;;;;;;;;;;;;19.73;64.43;100733.72;5111874;27;1178;-70
2021/04/04 00:30:57;;;;;;;;;;;;;;;19.72;64.38;100734.69;5130546;27;758;-70
2021/04/04 00:33:24;;;;;;;;;;;;;;;19.72;64.65;100739.13;5130280;27;2011;-70
2021/04/04 00:35:50;;;;;;;;;;;;;;;19.72;64.46;100732.06;5111807;27;790;-70
2021/04/04 00:38:17;;;;;;;;;;;;;;;19.71;64.66;100730.34;5130203;27;1318;-71
2021/04/04 00:40:43;;;;;;;;;;;;;;;19.72;64.80;100732.06;5118989;27;1588;-70
2021/04/04 00:43:12;;;;;;;;;;;;;;;19.71;64.48;100732.97;5080674;28;1224;-70
2021/04/04 00:45:39;;;;;;;;;;;;;;;19.70;64.44;100723.34;5101817;28;1165;-70
2021/04/04 00:48:06;;;;;;;;;;;;;;;19.70;64.59;100720.69;5071013;28;1197;-70
2021/04/04 00:50:37;;;;;;;;;;;;;;;19.71;64.62;100721.56;5089779;28;1185;-70
2021/04/04 00:53:04;;;;;;;;;;;;;;;19.71;64.53;100718.91;5088955;28;1922;-70
2021/04/04 00:55:30;;;;;;;;;;;;;;;19.71;64.57;100724.19;5070562;28;1315;-69
2021/04/04 00:57:56;;;;;;;;;;;;;;;19.69;64.73;100721.66;5070829;28;1236;-70
2021/04/04 01:00:27;;;;;;;;;;;;;;;19.69;64.68;100719.03;5070395;28;1163;-71
2021/04/04 01:02:56;;;;;;;;;;;;;;;19.69;64.67;100715.53;5088726;28;1389;-70
2021/04/04 01:05:34;;;;;;;;;;;;;;;19.70;64.73;100722.53;5054757;28;1338;-70
2021/04/04 01:08:00;;;;;;;;;;;;;;;19.68;64.57;100706.75;5088905;28;1339;-69
2021/04/04 01:10:30;;;;;;;;;;;;;;;19.68;64.67;100709.38;5089423;28;1411;-70
2021/04/04 01:12:56;;;;;;;;;;;;;;;19.68;64.69;100704.09;5089035;28;1910;-70
2021/04/04 01:15:44;;;;;;;;;;;;;;;19.69;64.69;100713.75;5070656;28;1264;-69
2021/04/04 01:18:29;;;;;;;;;;;;;;;19.68;64.85;100706.75;5088739;28;1240;-70
2021/04/04 01:20:57;;;;;;;;;;;;;;;19.67;64.77;100705.03;5069449;28;1401;-70
2021/04/04 01:23:42;;;;;;;;;;;;;;;19.67;64.91;100714.78;5088890;28;1295;-71
2021/04/04 01:26:19;;;;;;;;;;;;;;;19.67;64.83;100710.31;5088745;28;1331;-70
2021/04/04 01:28:45;;;;;;;;;;;;;;;19.68;64.78;100719.97;5088611;28;1038;-70
2021/04/04 01:31:12;;;;;;;;;;;;;;;19.69;64.87;100719.03;5088732;28;1310;-70
2021/04/04 01:33:39;;;;;;;;;;;;;;;19.66;64.95;100710.44;5088813;28;1906;-70
2021/04/04 01:36:08;;;;;;;;;;;;;;;19.67;64.69;100712.13;5088503;28;1326;-70
2021/04/04 01:38:38;;;;;;;;;;;;;;;19.67;64.78;100710.31;5092800;28;1088;-71
2021/04/04 01:41:07;;;;;;;;;;;;;;;19.67;64.72;100709.50;5092595;28;1335;-71
2021/04/04 01:43:34;;;;;;;;;;;;;;;19.66;64.83;100708.66;5092910;28;1040;-71
2021/04/04 01:46:00;;;;;;;;;;;;;;;19.64;64.80;100705.22;5092661;28;813;-71
2021/04/04 01:48:27;;;;;;;;;;;;;;;19.64;64.62;100706.06;5092646;28;1257;-71
2021/04/04 01:50:54;;;;;;;;;;;;;;;19.64;64.55;100710.50;5074560;28;1229;-71
2021/04/04 01:53:21;;;;;;;;;;;;;;;19.63;64.47;100719.41;5092718;28;1909;-70
2021/04/04 01:55:48;;;;;;;;;;;;;;;19.66;64.53;100713.06;5092868;28;1095;-71
2021/04/04 01:58:14;;;;;;;;;;;;;;;19.63;64.48;100714.97;5074142;28;1269;-72
2021/04/04 02:00:41;;;;;;;;;;;;;;;19.63;64.49;100717.63;5092973;28;1065;-72
2021/04/04 02:03:08;;;;;;;;;;;;;;;19.63;64.62;100706.19;5073793;28;1260;-72
2021/04/04 02:05:34;;;;;;;;;;;;;;;19.63;64.42;100706.19;5074096;28;1280;-72
2021/04/04 02:08:01;;;;;;;;;;;;;;;19.62;64.45;100704.47;5092361;28;1280;-71
2021/04/04 02:10:29;;;;;;;;;;;;;;;19.62;64.42;100707.13;5092969;28;1190;-71
2021/04/04 02:12:58;;;;;;;;;;;;;;;19.62;64.42;100701.84;5073807;28;1252;-71
2021/04/04 02:15:26;;;;;;;;;;;;;;;19.61;64.39;100706.25;5092321;28;1064;-71
2021/04/04 02:17:53;;;;;;;;;;;;;;;19.61;64.43;100700.97;5091512;28;1230;-71
2021/04/04 02:20:22;;;;;;;;;;;;;;;19.60;64.36;100701.09;5092409;28;1143;-71
2021/04/04 02:22:48;;;;;;;;;;;;;;;19.60;64.46;100701.09;5092185;28;1291;-71
2021/04/04 02:25:15;;;;;;;;;;;;;;;19.61;64.39;100695.69;5092355;28;1000;-73
2021/04/04 02:27:43;;;;;;;;;;;;;;;19.62;64.26;100701.84;5091877;28;1211;-72
2021/04/04 02:30:11;;;;;;;;;;;;;;;19.63;64.39;100708.81;5092502;28;1149;-72
2021/04/04 02:32:39;;;;;;;;;;;;;;;19.60;64.31;100701.94;5073567;28;1331;-72
2021/04/04 02:35:07;;;;;;;;;;;;;;;19.62;64.28;100704.47;5092119;28;1898;-72
2021/04/04 02:37:35;;;;;;;;;;;;;;;19.61;64.40;100700.97;5092059;28;1317;-71
2021/04/04 02:40:04;;;;;;;;;;;;;;;19.60;64.48;100703.72;5092102;28;1038;-71
2021/04/04 02:42:31;;;;;;;;;;;;;;;19.59;64.29;100707.31;5091603;28;1307;-71
2021/04/04 02:44:59;;;;;;;;;;;;;;;19.59;64.25;100717.88;5091796;28;941;-72
2021/04/04 02:47:44;;;;;;;;;;;;;;;19.58;64.24;100711.72;5091535;28;1326;-71
2021/04/04 02:50:10;;;;;;;;;;;;;;;19.58;64.26;100716.16;5091364;28;1101;-71
2021/04/04 02:52:38;;;;;;;;;;;;;;;19.59;64.19;100717.88;5073401;28;1422;-71
2021/04/04 02:55:06;;;;;;;;;;;;;;;19.56;64.06;100718.91;5091569;28;1987;-71
2021/04/04 02:57:33;;;;;;;;;;;;;;;19.57;64.30;100719.78;5072877;28;1512;-72
2021/04/04 03:00:01;;;;;;;;;;;;;;;19.57;64.30;100719.78;5056492;28;1211;-71
2021/04/04 03:02:28;;;;;;;;;;;;;;;19.56;64.27;100721.56;5056447;28;1338;-71
2021/04/04 03:04:55;;;;;;;;;;;;;;;19.56;64.20;100715.41;5091626;28;1000;-71
2021/04/04 03:07:23;;;;;;;;;;;;;;;19.57;64.14;100719.78;5072926;28;1331;-71
2021/04/04 03:10:10;;;;;;;;;;;;;;;19.53;64.05;100718.25;5091406;28;1924;-71
2021/04/04 03:12:37;;;;;;;;;;;;;;;19.59;63.99;100720.50;5091145;28;1176;-70
2021/04/04 03:15:05;;;;;;;;;;;;;;;19.58;64.08;100724.09;5090777;28;1976;-71
2021/04/04 03:17:31;;;;;;;;;;;;;;;19.58;64.07;100724.09;5091029;28;1321;-70
2021/04/04 03:19:59;;;;;;;;;;;;;;;19.58;64.21;100726.72;5091009;28;1107;-70
2021/04/04 03:22:26;;;;;;;;;;;;;;;19.58;63.99;100718.81;5073249;28;1196;-70
2021/04/04 03:24:54;;;;;;;;;;;;;;;19.58;64.06;100727.59;5091592;28;1199;-69
2021/04/04 03:27:20;;;;;;;;;;;;;;;19.58;63.95;100729.38;5090945;28;1311;-70
2021/04/04 03:29:47;;;;;;;;;;;;;;;19.56;63.99;100731.28;5091586;28;1169;-70
2021/04/04 03:32:13;;;;;;;;;;;;;;;19.56;63.95;100731.28;5098168;28;1620;-70
2021/04/04 03:34:40;;;;;;;;;;;;;;;19.56;63.93;100729.50;5103975;28;1973;-70
2021/04/04 03:37:06;;;;;;;;;;;;;;;19.55;63.87;100730.41;5101590;28;1350;-69
2021/04/04 03:39:32;;;;;;;;;;;;;;;19.55;63.96;100735.69;5090893;28;1132;-69
2021/04/04 03:42:00;;;;;;;;;;;;;;;19.55;63.92;100733.06;5090874;28;1333;-69
2021/04/04 03:44:30;;;;;;;;;;;;;;;19.55;64.01;100740.13;5090692;28;1133;-69
2021/04/04 03:46:57;;;;;;;;;;;;;;;19.55;64.04;100740.97;5090289;28;1222;-71
2021/04/04 03:49:24;;;;;;;;;;;;;;;19.54;64.07;100739.31;5090429;28;1026;-70
2021/04/04 03:51:58;;;;;;;;;;;;;;;19.54;64.06;100738.44;5090444;28;1437;-70
2021/04/04 03:54:24;;;;;;;;;;;;;;;19.54;64.08;100738.44;5072194;28;1961;-71
2021/04/04 03:56:52;;;;;;;;;;;;;;;19.54;63.88;100741.94;5090361;28;1217;-71
2021/04/04 03:59:20;;;;;;;;;;;;;;;19.55;63.94;100742.78;5071157;28;1088;-70
2021/04/04 04:01:47;;;;;;;;;;;;;;;19.54;63.86;100747.22;5071672;28;1228;-69
2021/04/04 04:04:14;;;;;;;;;;;;;;;19.53;63.82;100739.38;5090367;28;1049;-70
2021/04/04 04:06:41;;;;;;;;;;;;;;;19.52;63.87;100741.16;5071471;28;1391;-69
2021/04/04 04:09:09;;;;;;;;;;;;;;;19.52;63.88;100740.31;5090079;28;1183;-69
2021/04/04 04:11:37;;;;;;;;;;;;;;;19.54;63.73;100735.81;5071979;28;1295;-69
2021/04/04 04:14:05;;;;;;;;;;;;;;;19.51;63.80;100739.50;5071477;28;1914;-69
2021/04/04 04:16:32;;;;;;;;;;;;;;;19.53;63.88;100734.09;5054082;28;1399;-70
2021/04/04 04:19:00;;;;;;;;;;;;;;;19.52;63.88;100733.25;5071170;28;1222;-69
2021/04/04 04:21:27;;;;;;;;;;;;;;;19.52;63.87;100737.69;5089782;28;1224;-70
2021/04/04 04:23:53;;;;;;;;;;;;;;;19.51;63.73;100746.56;5089971;28;1050;-70
2021/04/04 04:26:20;;;;;;;;;;;;;;;19.51;63.84;100741.28;5089904;28;1232;-70
2021/04/04 04:28:47;;;;;;;;;;;;;;;19.50;63.88;100734.28;5090167;28;1051;-70
2021/04/04 04:31:19;;;;;;;;;;;;;;;19.50;63.80;100737.78;5089762;28;1342;-69
2021/04/04 04:33:47;;;;;;;;;;;;;;;19.52;63.72;100753.53;5071771;28;1982;-71
2021/04/04 04:36:15;;;;;;;;;;;;;;;19.51;63.71;100741.28;5089597;28;1303;-70
2021/04/04 04:38:42;;;;;;;;;;;;;;;19.51;63.93;100743.91;5089596;28;1137;-70
2021/04/04 04:41:08;;;;;;;;;;;;;;;19.49;63.75;100748.44;5089571;28;1291;-70
2021/04/04 04:43:37;;;;;;;;;;;;;;;19.50;63.64;100752.78;5071574;28;922;-70
2021/04/04 04:46:04;;;;;;;;;;;;;;;19.49;63.71;100748.44;5089771;28;1251;-70
2021/04/04 04:48:31;;;;;;;;;;;;;;;19.49;63.81;100746.63;5071073;28;1699;-69
2021/04/04 04:50:58;;;;;;;;;;;;;;;19.50;63.81;100755.41;5089388;28;818;-69
2021/04/04 04:53:25;;;;;;;;;;;;;;;19.50;63.78;100755.41;5070704;28;1976;-70
2021/04/04 04:55:54;;;;;;;;;;;;;;;19.49;63.64;100759.00;5070872;28;798;-70
2021/04/04 04:58:21;;;;;;;;;;;;;;;19.50;63.48;100763.34;5088792;28;1395;-70
2021/04/04 05:00:49;;;;;;;;;;;;;;;19.49;63.57;100766.91;5088924;28;1174;-70
2021/04/04 05:03:16;;;;;;;;;;;;;;;19.47;63.63;100764.38;5088948;28;1188;-70
2021/04/04 05:05:45;;;;;;;;;;;;;;;19.50;63.51;100773.91;5054714;28;1290;-70
2021/04/04 05:08:14;;;;;;;;;;;;;;;19.48;63.59;100774.03;5088842;28;1319;-70
2021/04/04 05:10:41;;;;;;;;;;;;;;;19.48;63.52;100775.81;5089951;28;1494;-70
2021/04/04 05:13:09;;;;;;;;;;;;;;;19.48;63.45;100773.16;5101975;28;1593;-69
2021/04/04 05:15:35;;;;;;;;;;;;;;;19.47;63.52;100784.66;5093045;28;1926;-69
2021/04/04 05:18:01;;;;;;;;;;;;;;;19.47;63.34;100790.81;5073440;28;1550;-70
2021/04/04 05:20:29;;;;;;;;;;;;;;;19.49;63.41;100788.06;5103741;28;1155;-70
2021/04/04 05:22:55;;;;;;;;;;;;;;;19.48;63.34;100789.00;5107283;28;1232;-70
2021/04/04 05:25:21;;;;;;;;;;;;;;;19.48;63.34;100792.50;5089171;28;1181;-70
2021/04/04 05:27:47;;;;;;;;;;;;;;;19.47;63.23;100789.94;5088868;28;1514;-69
2021/04/04 05:30:14;;;;;;;;;;;;;;;19.47;63.41;100788.16;5089418;28;1272;-69
2021/04/04 05:32:43;;;;;;;;;;;;;;;19.47;63.27;100790.81;5088857;28;1286;-69
2021/04/04 05:35:16;;;;;;;;;;;;;;;19.45;63.47;100789.19;5089211;28;1902;-68
2021/04/04 05:37:49;;;;;;;;;;;;;;;19.45;63.36;100792.69;5088705;28;1367;-68
2021/04/04 05:40:20;;;;;;;;;;;;;;;19.44;63.37;100801.56;5088963;28;1013;-68
2021/04/04 05:42:57;;;;;;;;;;;;;;;19.45;63.35;100805.91;5088698;28;1171;-69
2021/04/04 05:45:24;;;;;;;;;;;;;;;19.45;63.41;100805.06;5089272;28;1313;-69
2021/04/04 05:48:03;;;;;;;;;;;;;;;19.46;63.30;100797.03;5070697;28;1208;-69
2021/04/04 05:50:46;;;;;;;;;;;;;;;19.46;63.36;100814.66;5098485;28;1490;-69
2021/04/04 05:53:15;;;;;;;;;;;;;;;19.45;63.33;100805.06;5088509;28;1281;-69
2021/04/04 05:56:00;;;;;;;;;;;;;;;19.46;63.30;100812.00;5069972;28;1914;-69
2021/04/04 05:58:49;;;;;;;;;;;;;;;19.46;63.41;100812.00;5088371;28;1228;-69
2021/04/04 06:01:24;;;;;;;;;;;;;;;19.44;63.28;100819.19;5078933;28;1486;-68
2021/04/04 06:03:56;;;;;;;;;;;;;;;19.43;63.36;100820.13;5088464;28;1230;-68
2021/04/04 06:06:41;;;;;;;;;;;;;;;19.43;63.37;100825.41;5088497;28;1279;-68
2021/04/04 06:09:26;;;;;;;;;;;;;;;19.43;63.36;100828.03;5088616;28;1053;-69
2021/04/04 06:12:02;;;;;;;;;;;;;;;19.43;63.30;100828.91;5069671;28;1268;-68
2021/04/04 06:14:28;;;;;;;;;;;;;;;19.42;63.34;100836.94;5088706;28;1976;-69
2021/04/04 06:16:57;;;;;;;;;;;;;;;19.43;63.46;100839.47;5053408;28;1290;-68
2021/04/04 06:19:42;;;;;;;;;;;;;;;19.42;63.33;100848.34;5088582;28;1045;-69
2021/04/04 06:22:16;;;;;;;;;;;;;;;19.42;63.38;100850.13;5096522;28;1641;-69
2021/04/04 06:25:05;;;;;;;;;;;;;;;19.43;63.43;100849.19;5066650;28;979;-69
2021/04/04 06:28:10;;;;;;;;;;;;;;;19.42;63.34;100858.06;5070693;28;1371;-69
2021/04/04 06:30:52;;;;;;;;;;;;;;;19.42;63.33;100863.34;5048743;28;1322;-69
2021/04/04 06:33:22;;;;;;;;;;;;;;;19.40;63.28;100867.84;5048718;28;1363;-69
2021/04/04 06:35:57;;;;;;;;;;;;;;;19.41;63.35;100869.56;5074845;28;945;-69
2021/04/04 06:38:30;;;;;;;;;;;;;;;19.41;63.45;100866.91;5073352;28;1579;-67
2021/04/04 06:41:09;;;;;;;;;;;;;;;19.41;63.26;100869.56;5091656;28;1091;-69
2021/04/04 06:43:50;;;;;;;;;;;;;;;19.40;63.25;100870.47;5074061;28;1015;-68
2021/04/04 06:46:44;;;;;;;;;;;;;;;19.41;63.32;100866.91;5073542;28;1343;-68
2021/04/04 06:49:23;;;;;;;;;;;;;;;19.43;63.59;100865.88;5091714;28;958;-67
2021/04/04 06:52:01;;;;;;;;;;;;;;;19.38;63.61;100872.34;5101773;28;1366;-70
2021/04/04 06:54:46;;;;;;;;;;;;;;;19.40;63.76;100862.56;5072124;28;1906;-69
2021/04/04 06:57:25;;;;;;;;;;;;;;;19.41;63.78;100869.56;5090249;28;1173;-71
2021/04/04 06:59:52;;;;;;;;;;;;;;;19.39;64.11;100874.06;5072066;28;1226;-69
2021/04/04 07:02:19;;;;;;;;;;;;;;;19.38;64.06;100872.34;5090372;28;1314;-70
2021/04/04 07:04:49;;;;;;;;;;;;;;;19.39;64.10;100887.25;5090087;28;1146;-68
2021/04/04 07:07:18;;;;;;;;;;;;;;;19.38;64.18;100885.56;5090303;28;1236;-69
2021/04/04 07:10:04;;;;;;;;;;;;;;;19.38;63.98;100888.19;5071934;28;1103;-68
2021/04/04 07:12:39;;;;;;;;;;;;;;;19.38;64.18;100898.75;5090270;28;1208;-68
2021/04/04 07:15:05;;;;;;;;;;;;;;;19.37;64.23;100892.63;5090107;28;1983;-70
2021/04/04 07:17:43;;;;;;;;;;;;;;;19.38;64.22;100898.75;5057651;28;1583;-68
2021/04/04 07:20:10;;;;;;;;;;;;;;;19.38;64.10;100902.25;5094626;28;1019;-68
2021/04/04 07:22:48;;;;;;;;;;;;;;;19.38;64.21;100904.91;5078452;28;1556;-73
2021/04/04 07:25:26;;;;;;;;;;;;;;;19.38;64.03;100904.03;5056435;28;1444;-75
2021/04/04 07:28:12;;;;;;;;;;;;;;;19.37;64.12;100904.97;5072987;28;1245;-75
2021/04/04 07:30:58;;;;;;;;;;;;;;;19.39;63.94;100908.41;5061991;28;1216;-76
2021/04/04 07:33:24;;;;;;;;;;;;;;;19.38;63.96;100914.59;5111222;28;1268;-72
2021/04/04 07:35:53;;;;;;;;;;;;;;;19.38;64.02;100909.31;5086425;28;1965;-75
2021/04/04 07:38:43;;;;;;;;;;;;;;;19.39;63.98;100913.69;5071748;28;1994;-73
2021/04/04 07:41:10;;;;;;;;;;;;;;;19.39;63.94;100921.59;5054992;28;1370;-72
2021/04/04 07:43:45;;;;;;;;;;;;;;;19.39;63.87;100916.31;5090035;28;1039;-72
2021/04/04 07:46:30;;;;;;;;;;;;;;;19.39;63.88;100926.88;5089573;28;1318;-70
2021/04/04 07:49:13;;;;;;;;;;;;;;;19.39;64.01;100924.25;5071168;28;1091;-69
2021/04/04 07:51:40;;;;;;;;;;;;;;;19.47;63.74;100919.41;5086117;28;1445;-66
2021/04/04 07:54:11;;;;;;;;;;;;;;;19.46;64.25;100921.19;5129170;27;1984;-66
2021/04/04 07:56:41;;;;;;;;;;;;;;;19.46;63.69;100925.63;5100086;28;1342;-68
2021/04/04 07:59:19;;;;;;;;;;;;;;;19.46;64.10;100928.25;5109673;28;1052;-68
2021/04/04 08:01:48;;;;;;;;;;;;;;;19.46;64.03;100928.25;5103176;27;1263;-70
2021/04/04 08:04:24;;;;;;;;;;;;;;;19.43;63.68;100931.06;5095246;27;1477;-68
2021/04/04 08:06:59;;;;;;;;;;;;;;;19.40;60.67;100924.19;5130657;27;1298;-66
2021/04/04 08:09:34;;;;;;;;;;;;;;;19.42;62.82;100932.03;5131171;27;1093;-69
2021/04/04 08:12:04;;;;;;;;;;;;;;;19.46;62.32;100930.91;5112052;27;1295;-69
2021/04/04 08:14:33;;;;;;;;;;;;;;;19.44;62.05;100936.28;5130873;27;1979;-67
2021/04/04 08:16:59;;;;;;;;;;;;;;;19.43;61.29;100933.72;5122184;27;1521;-67
2021/04/04 08:19:26;;;;;;;;;;;;;;;19.43;62.07;100939.84;5111331;28;965;-69
2021/04/04 08:21:58;;;;;;;;;;;;;;;19.42;60.73;100940.81;5097542;27;1382;-73
2021/04/04 08:24:30;;;;;;;;;;;;;;;19.45;58.86;100938.00;5130517;27;1004;-74
2021/04/04 08:26:59;;;;;;;;;;;;;;;19.48;60.07;100939.59;5111706;27;1318;-71
2021/04/04 08:29:30;;;;;;;;;;;;;;;19.44;56.91;100941.56;5112524;27;1169;-74
2021/04/04 08:32:07;;;;;;;;;;;;;;;19.44;59.09;100946.84;5128447;27;1389;-67
2021/04/04 08:34:56;;;;;;;;;;;;;;;19.44;56.95;100946.84;5096740;27;1910;-69
2021/04/04 08:37:38;;;;;;;;;;;;;;;19.43;55.88;100939.00;5111738;27;1292;-75
2021/04/04 08:40:06;;;;;;;;;;;;;;;19.45;55.80;100942.44;5091934;28;1136;-71
2021/04/04 08:42:33;;;;;;;;;;;;;;;19.47;56.63;100951.09;5102490;27;1191;-69
2021/04/04 08:45:08;;;;;;;;;;;;;;;19.50;60.24;100956.22;5111906;27;1066;-70
2021/04/04 08:47:53;;;;;;;;;;;;;;;19.52;57.46;100954.31;5076859;28;1271;-78
2021/04/04 08:50:34;;;;;;;;;;;;;;;19.47;55.75;100957.25;5086252;27;1459;-72
2021/04/04 08:53:10;;;;;;;;;;;;;;;19.47;55.75;100959.88;5097625;28;1406;-71
2021/04/04 08:55:37;;;;;;;;;;;;;;;19.47;55.64;100959.03;5130124;27;1968;-70
2021/04/04 08:58:04;;;;;;;;;;;;;;;19.47;55.10;100972.25;5095801;28;1240;-68
2021/04/04 09:00:33;;;;;;;;;;;;;;;19.46;55.28;100970.53;5090809;28;1295;-69
2021/04/04 09:02:59;;;;;;;;;;;;;;;19.56;60.08;100971.72;5105651;27;1291;-70
2021/04/04 09:05:27;;;;;;;;;;;;;;;19.66;59.53;100983.47;5100077;28;1659;-68
2021/04/04 09:07:58;;;;;;;;;;;;;;;19.60;56.01;100973.25;5107499;28;1264;-69
2021/04/04 09:10:27;;;;;;;;;;;;;;;19.60;56.26;100983.84;5107602;28;1126;-70
2021/04/04 09:12:57;;;;;;;;;;;;;;;19.60;56.36;100989.97;5107877;28;1224;-74
2021/04/04 09:15:24;;;;;;;;;;;;;;;19.72;56.85;100983.13;5107524;28;1929;-69
2021/04/04 09:17:55;;;;;;;;;;;;;;;19.80;55.79;100991.47;5113866;28;1286;-66
2021/04/04 09:20:31;;;;;;;;;;;;;;;19.75;55.41;100992.66;5127275;27;995;-69
2021/04/04 09:22:59;;;;;;;;;;;;;;;19.74;56.76;100996.25;5113003;27;1259;-69
2021/04/04 09:25:27;;;;;;;;;;;;;;;19.79;58.91;101000.31;5107856;28;1022;-68
2021/04/04 09:27:57;;;;;;;;;;;;;;;19.76;56.88;100995.22;5088557;28;1275;-72
2021/04/04 09:30:33;;;;;;;;;;;;;;;19.75;58.01;100996.16;5107631;28;952;-69
2021/04/04 09:33:02;;;;;;;;;;;;;;;19.69;57.95;101001.81;5087558;28;1362;-72
2021/04/04 09:35:28;;;;;;;;;;;;;;;19.70;56.09;101006.13;5128770;28;1909;-70
2021/04/04 09:38:00;;;;;;;;;;;;;;;19.65;55.11;100994.97;5109267;28;1251;-75
2021/04/04 09:40:27;;;;;;;;;;;;;;;19.64;55.30;101002.06;5113765;28;1180;-67
2021/04/04 09:42:54;;;;;;;;;;;;;;;19.62;55.36;101003.09;5088728;28;1248;-74
2021/04/04 09:45:22;;;;;;;;;;;;;;;19.63;56.16;101004.78;5070937;28;1537;-69
2021/04/04 09:47:50;;;;;;;;;;;;;;;19.69;58.86;101000.94;5106974;28;1393;-64
2021/04/04 09:50:18;;;;;;;;;;;;;;;19.80;58.26;100996.75;5082661;28;1550;-69
2021/04/04 09:52:45;;;;;;;;;;;;;;;19.77;55.76;101004.00;5114206;28;1489;-69
2021/04/04 09:55:14;;;;;;;;;;;;;;;19.85;59.47;101005.25;5087411;28;1905;-72
2021/04/04 09:57:55;;;;;;;;;;;;;;;19.87;59.21;101003.41;5084183;28;1323;-69
2021/04/04 10:00:21;;;;;;;;;;;;;;;19.83;58.55;101012.44;5093221;28;1123;-73
2021/04/04 10:02:49;;;;;;;;;;;;;;;19.77;59.22;101012.78;5105732;27;1251;-72
2021/04/04 10:05:25;;;;;;;;;;;;;;;19.75;59.40;101011.16;5113356;27;806;-70
2021/04/04 10:07:52;;;;;;;;;;;;;;;19.76;59.17;101011.06;5131506;27;1314;-71
2021/04/04 10:10:31;;;;;;;;;;;;;;;19.80;59.34;101012.59;5131787;27;1126;-73
2021/04/04 10:12:58;;;;;;;;;;;;;;;19.79;59.63;101015.34;5116763;27;1239;-72
2021/04/04 10:15:25;;;;;;;;;;;;;;;19.79;59.85;101012.72;5092338;28;1910;-75
2021/04/04 10:18:00;;;;;;;;;;;;;;;19.81;60.08;101014.31;5075755;28;1276;-67
2021/04/04 10:20:30;;;;;;;;;;;;;;;19.92;60.01;101017.19;5111298;28;1148;-70
2021/04/04 10:22:57;;;;;;;;;;;;;;;19.82;60.11;101010.72;5106813;27;1315;-73
2021/04/04 10:25:23;;;;;;;;;;;;;;;19.75;60.36;101006.75;5112147;27;1203;-68
2021/04/04 10:28:16;;;;;;;;;;;;;;;19.72;60.59;101006.91;5130982;27;1275;-70
2021/04/04 10:30:42;;;;;;;;;;;;;;;19.72;60.35;101001.63;5127041;27;1273;-74
2021/04/04 10:33:18;;;;;;;;;;;;;;;19.70;60.49;101008.78;5132488;27;1231;-75
2021/04/04 10:35:44;;;;;;;;;;;;;;;19.69;60.26;101012.38;5132748;27;1978;-74
2021/04/04 10:38:15;;;;;;;;;;;;;;;19.68;60.16;101013.31;5095733;28;1314;-74
2021/04/04 10:40:52;;;;;;;;;;;;;;;19.67;60.02;101006.31;5092653;28;1092;-72
2021/04/04 10:43:22;;;;;;;;;;;;;;;19.69;60.00;101006.22;5111116;28;1303;-74
2021/04/04 10:46:04;;;;;;;;;;;;;;;19.67;60.13;101000.19;5110940;28;1146;-73
2021/04/04 10:48:32;;;;;;;;;;;;;;;19.67;60.06;101005.47;5129709;27;1267;-74
2021/04/04 10:50:59;;;;;;;;;;;;;;;19.67;60.08;101002.84;5095183;27;1269;-72
2021/04/04 10:53:25;;;;;;;;;;;;;;;19.66;59.91;101001.97;5122152;27;1727;-77
2021/04/04 10:55:52;;;;;;;;;;;;;;;19.66;60.03;101001.97;5110532;28;1968;-75
2021/04/04 10:58:22;;;;;;;;;;;;;;;19.66;60.10;101001.97;5094093;28;1216;-75
2021/04/04 11:00:48;;;;;;;;;;;;;;;19.66;59.94;101001.13;5110098;28;1037;-77
2021/04/04 11:03:15;;;;;;;;;;;;;;;19.65;59.93;100997.63;5091287;27;1409;-74
2021/04/04 11:05:42;;;;;;;;;;;;;;;19.64;60.10;101004.69;5091914;28;1185;-75
2021/04/04 11:08:08;;;;;;;;;;;;;;;19.66;60.32;101009.06;5124705;27;1315;-73
2021/04/04 11:10:35;;;;;;;;;;;;;;;19.69;60.66;101009.72;5131032;27;909;-72
2021/04/04 11:13:02;;;;;;;;;;;;;;;19.69;60.14;101008.88;5097074;27;1504;-70
2021/04/04 11:15:32;;;;;;;;;;;;;;;19.66;59.79;101003.75;5073379;28;1918;-74
2021/04/04 11:18:00;;;;;;;;;;;;;;;19.60;59.67;101005.81;5104590;27;1263;-78
2021/04/04 11:20:26;;;;;;;;;;;;;;;19.62;59.98;101003.09;5111839;27;1143;-75
2021/04/04 11:22:53;;;;;;;;;;;;;;;19.61;60.11;101004.00;5111548;27;1256;-74
2021/04/04 11:25:27;;;;;;;;;;;;;;;19.60;60.23;101002.31;5111628;27;1167;-74
2021/04/04 11:27:53;;;;;;;;;;;;;;;19.60;60.30;101002.31;5130274;27;1283;-76
2021/04/04 11:30:31;;;;;;;;;;;;;;;19.58;60.13;100999.75;5130501;27;1049;-76
2021/04/04 11:33:18;;;;;;;;;;;;;;;19.58;60.24;100991.81;5118305;27;1192;-74
2021/04/04 11:36:02;;;;;;;;;;;;;;;19.59;60.02;100992.69;5111703;27;1913;-74
2021/04/04 11:38:29;;;;;;;;;;;;;;;19.69;60.22;100987.72;5111538;27;1319;-76
2021/04/04 11:41:15;;;;;;;;;;;;;;;19.68;59.64;100997.44;5111787;27;1425;-72
2021/04/04 11:43:42;;;;;;;;;;;;;;;19.64;59.78;100991.47;5130585;27;1086;-72
2021/04/04 11:46:27;;;;;;;;;;;;;;;19.64;59.78;100993.25;5129856;27;1267;-77
2021/04/04 11:48:53;;;;;;;;;;;;;;;19.71;59.68;100989.34;5130254;27;769;-77
2021/04/04 11:51:29;;;;;;;;;;;;;;;19.72;59.69;100995.50;5099622;27;1457;-75
2021/04/04 11:53:56;;;;;;;;;;;;;;;19.69;59.77;100993.88;5111014;27;1309;-73
2021/04/04 11:56:41;;;;;;;;;;;;;;;19.71;59.92;100992.00;5129000;27;2048;-77
2021/04/04 11:59:09;;;;;;;;;;;;;;;19.72;59.70;100993.69;5103458;28;806;-66
2021/04/04 12:01:35;;;;;;;;;;;;;;;19.72;59.82;100999.00;5111410;27;1311;-67
2021/04/04 12:04:36;;;;;;;;;;;;;;;19.72;59.90;100996.34;5101611;28;802;-69
2021/04/04 12:07:16;;;;;;;;;;;;;;;19.72;59.75;100995.50;5060650;28;1384;-71
2021/04/04 12:09:45;;;;;;;;;;;;;;;19.72;59.97;100987.56;5097879;28;1139;-67
2021/04/04 12:12:16;;;;;;;;;;;;;;;19.72;59.62;100984.91;5099217;27;1223;-68
2021/04/04 12:14:51;;;;;;;;;;;;;;;19.73;59.38;100990.09;5112049;27;1980;-68
2021/04/04 12:17:22;;;;;;;;;;;;;;;19.74;59.35;100985.66;5106214;27;1370;-67
2021/04/04 12:19:50;;;;;;;;;;;;;;;19.75;59.40;100987.38;5111189;27;1282;-71
2021/04/04 12:22:32;;;;;;;;;;;;;;;19.80;59.68;100986.19;5110789;27;1374;-70
2021/04/04 12:25:09;;;;;;;;;;;;;;;19.80;59.43;100986.19;5112240;27;1193;-69
2021/04/04 12:27:37;;;;;;;;;;;;;;;19.79;59.43;100981.00;5111472;27;1357;-70
2021/04/04 12:30:14;;;;;;;;;;;;;;;19.78;59.29;100982.78;5094968;27;1330;-65
2021/04/04 12:32:42;;;;;;;;;;;;;;;19.78;59.60;100988.06;5111191;27;1343;-67
2021/04/04 12:35:11;;;;;;;;;;;;;;;19.79;59.50;100983.63;5129952;27;1913;-69
2021/04/04 12:37:57;;;;;;;;;;;;;;;19.84;59.94;100976.28;5130392;27;1306;-66
2021/04/04 12:40:31;;;;;;;;;;;;;;;19.88;59.41;100980.47;5111949;27;1116;-69
2021/04/04 12:42:58;;;;;;;;;;;;;;;19.90;59.29;100982.06;5110551;27;1357;-67
2021/04/04 12:45:31;;;;;;;;;;;;;;;19.93;60.00;100981.88;5107916;28;1149;-65
2021/04/04 12:47:57;;;;;;;;;;;;;;;19.92;59.39;100980.19;5108023;28;1394;-66
2021/04/04 12:50:26;;;;;;;;;;;;;;;19.95;60.37;100979.16;5108306;28;1228;-63
2021/04/04 12:52:54;;;;;;;;;;;;;;;19.99;61.50;100978.91;5089913;28;1764;-69
2021/04/04 12:55:23;;;;;;;;;;;;;;;20.04;61.54;100978.59;5085439;28;2003;-67
2021/04/04 12:57:56;;;;;;;;;;;;;;;20.00;61.78;100980.56;5068197;28;1251;-67
2021/04/04 13:00:24;;;;;;;;;;;;;;;19.97;61.92;100972.81;5090510;28;1482;-66
2021/04/04 13:02:56;;;;;;;;;;;;;;;19.95;61.82;100985.28;5088700;28;1283;-68
2021/04/04 13:05:24;;;;;;;;;;;;;;;19.95;61.76;100979.16;5106239;27;1323;-70
2021/04/04 13:07:51;;;;;;;;;;;;;;;19.90;61.26;100981.22;5088415;28;1276;-74